Time;durP1;ratioP1;P1;durP2;ratioP2;P2;SDS_P1;SDS_P2;PMS_P1;PMS_P2;Temp;Humidity;BMP_temperature;BMP_pressure;BME280_temperature;BME280_humidity;BME280_pressure;Samples;Min_cycle;Max_cycle;Signal;HPM_P1;HPM_P2
2023/04/21 00:01:28;;;;;;;7.63;1.10;;;19.90;99.90;;;;;;5048305;28;20109;-73
2023/04/21 00:03:56;;;;;;;4.88;1.20;;;20.00;99.90;;;;;;5045874;28;20052;-73
2023/04/21 00:06:25;;;;;;;5.15;1.00;;;20.10;99.90;;;;;;5049756;28;20039;-73
2023/04/21 00:08:53;;;;;;;6.40;1.38;;;20.20;99.90;;;;;;5058155;28;20044;-72
2023/04/21 00:11:21;;;;;;;5.22;1.20;;;20.30;99.90;;;;;;5040986;28;20044;-73
2023/04/21 00:13:48;;;;;;;9.63;1.42;;;20.40;99.90;;;;;;5030937;28;20041;-72
2023/04/21 00:16:16;;;;;;;3.92;0.98;;;20.50;99.90;;;;;;5054180;28;20405;-72
2023/04/21 00:18:43;;;;;;;5.88;1.23;;;20.50;99.90;;;;;;5056062;28;20070;-70
2023/04/21 00:21:11;;;;;;;7.78;1.75;;;20.70;99.90;;;;;;5031845;28;20508;-70
2023/04/21 00:23:41;;;;;;;4.20;1.00;;;20.80;99.90;;;;;;5031367;28;20053;-71
2023/04/21 00:26:09;;;;;;;4.93;1.02;;;20.90;99.90;;;;;;5050583;28;20087;-70
2023/04/21 00:28:36;;;;;;;3.45;0.63;;;20.90;99.90;;;;;;5053312;28;20032;-72
2023/04/21 00:31:04;;;;;;;4.13;0.77;;;20.80;99.90;;;;;;5059209;28;20435;-73
2023/04/21 00:33:31;;;;;;;6.35;1.75;;;20.60;99.90;;;;;;5041160;28;20386;-70
2023/04/21 00:35:59;;;;;;;2.55;0.80;;;20.50;99.90;;;;;;5053433;28;20017;-70
2023/04/21 00:38:26;;;;;;;3.92;1.65;;;20.60;99.90;;;;;;5033841;28;20087;-71
2023/04/21 00:40:54;;;;;;;4.88;0.93;;;20.60;99.90;;;;;;5039230;28;20082;-71
2023/04/21 00:43:21;;;;;;;3.25;0.90;;;20.90;99.90;;;;;;5037676;28;20038;-71
2023/04/21 00:45:49;;;;;;;6.53;1.08;;;21.00;99.90;;;;;;5045535;28;20021;-70
2023/04/21 00:48:16;;;;;;;3.53;1.08;;;21.10;99.90;;;;;;5040363;28;20140;-71
2023/04/21 00:50:45;;;;;;;4.38;1.02;;;21.20;99.90;;;;;;5024927;28;20705;-72
2023/04/21 00:53:14;;;;;;;5.32;1.77;;;21.30;99.90;;;;;;5049879;28;20111;-71
2023/04/21 00:55:41;;;;;;;3.53;1.05;;;21.30;99.90;;;;;;5021989;28;20021;-69
2023/04/21 00:58:09;;;;;;;6.82;1.00;;;21.40;99.90;;;;;;5040739;28;20104;-74
2023/04/21 01:00:38;;;;;;;2.30;0.60;;;21.60;99.90;;;;;;5054450;28;20497;-72
2023/04/21 01:03:06;;;;;;;3.25;0.80;;;21.70;99.90;;;;;;5056406;28;20059;-72
2023/04/21 01:05:34;;;;;;;5.28;0.88;;;21.80;99.90;;;;;;5029630;28;20509;-70
2023/04/21 01:08:02;;;;;;;4.43;0.73;;;21.90;99.90;;;;;;5046220;28;20122;-73
2023/04/21 01:10:30;;;;;;;4.65;1.15;;;22.20;99.90;;;;;;5048241;28;20036;-69
2023/04/21 01:12:57;;;;;;;6.75;1.20;;;22.50;99.90;;;;;;5044338;28;20374;-71
2023/04/21 01:15:28;;;;;;;4.85;1.10;;;22.50;99.90;;;;;;5045215;28;20037;-72
2023/04/21 01:17:55;;;;;;;5.20;1.13;;;22.50;99.50;;;;;;5049427;28;20043;-72
2023/04/21 01:20:23;;;;;;;4.85;0.90;;;22.60;99.90;;;;;;5053734;28;20033;-71
2023/04/21 01:22:50;;;;;;;2.67;0.95;;;22.70;99.90;;;;;;5056062;28;20021;-69
2023/04/21 01:25:21;;;;;;;4.55;1.08;;;22.80;99.90;;;;;;5052158;28;20014;-70
2023/04/21 01:27:49;;;;;;;6.30;1.05;;;23.00;98.50;;;;;;5045544;28;20029;-69
2023/04/21 01:30:16;;;;;;;1.42;0.60;;;23.00;99.30;;;;;;5033218;28;20025;-70
2023/04/21 01:32:44;;;;;;;3.83;0.95;;;22.90;98.10;;;;;;5046296;28;20021;-70
2023/04/21 01:35:11;;;;;;;2.70;0.70;;;22.90;98.90;;;;;;5050777;28;20033;-70
2023/04/21 01:37:39;;;;;;;4.47;1.05;;;22.70;97.90;;;;;;5046993;28;20096;-70
2023/04/21 01:40:08;;;;;;;7.75;1.08;;;22.50;99.00;;;;;;5029836;28;20033;-70
2023/04/21 01:42:43;;;;;;;3.67;1.08;;;22.30;99.80;;;;;;5050807;28;20029;-70
2023/04/21 01:45:10;;;;;;;;;;;22.10;99.90;;;;;;5047200;28;20378;-74
2023/04/21 01:47:37;;;;;;;9.13;1.27;;;21.90;99.90;;;;;;5057037;28;19916;-72
2023/04/21 01:50:06;;;;;;;9.32;1.77;;;21.70;99.90;;;;;;5051354;28;20109;-70
2023/04/21 01:52:33;;;;;;;5.18;0.80;;;21.60;99.90;;;;;;5045194;28;20060;-70
2023/04/21 01:55:02;;;;;;;4.13;1.90;;;21.40;99.90;;;;;;5044440;28;20075;-70
2023/04/21 01:57:29;;;;;;;3.90;0.82;;;21.40;99.90;;;;;;5040113;28;20064;-65
2023/04/21 01:59:57;;;;;;;6.53;0.90;;;21.30;99.90;;;;;;5050352;28;20104;-66
2023/04/21 02:02:25;;;;;;;5.45;1.20;;;21.30;99.90;;;;;;5035269;28;20036;-66
2023/04/21 02:04:52;;;;;;;1.50;1.00;;;21.40;99.90;;;;;;5060077;28;20039;-70
2023/04/21 02:07:20;;;;;;;2.78;0.55;;;21.60;99.90;;;;;;5046109;28;20036;-66
2023/04/21 02:09:47;;;;;;;2.72;1.17;;;21.90;99.90;;;;;;5065410;28;20025;-65
2023/04/21 02:12:15;;;;;;;4.60;0.82;;;22.30;99.90;;;;;;5053818;28;20099;-71
2023/04/21 02:14:42;;;;;;;5.45;1.95;;;22.80;98.90;;;;;;5054060;28;20032;-67
2023/04/21 02:17:10;;;;;;;4.03;1.02;;;23.10;95.60;;;;;;5048380;28;20029;-69
2023/04/21 02:19:38;;;;;;;3.85;0.50;;;23.00;93.30;;;;;;5033220;28;20031;-67
2023/04/21 02:22:07;;;;;;;2.72;1.00;;;23.10;94.20;;;;;;5051384;28;20196;-66
2023/04/21 02:24:35;;;;;;;8.80;1.00;;;23.00;93.80;;;;;;5039825;28;20029;-67
2023/04/21 02:27:02;;;;;;;3.10;0.88;;;22.90;96.40;;;;;;5058939;28;20027;-68
2023/04/21 02:29:30;;;;;;;5.20;1.50;;;22.60;96.20;;;;;;5055229;28;20021;-67
2023/04/21 02:31:57;;;;;;;5.45;1.13;;;22.50;98.80;;;;;;5047146;28;20459;-66
2023/04/21 02:34:24;;;;;;;4.40;1.52;;;22.40;97.70;;;;;;5037809;28;20108;-67
2023/04/21 02:36:52;;;;;;;3.65;0.70;;;22.10;99.10;;;;;;5037411;28;20036;-66
2023/04/21 02:39:19;;;;;;;6.55;1.45;;;22.10;98.30;;;;;;5049411;28;20032;-67
2023/04/21 02:41:47;;;;;;;3.72;0.68;;;21.90;98.50;;;;;;5050470;28;20025;-68
2023/04/21 02:44:14;;;;;;;5.90;1.67;;;22.00;99.20;;;;;;5028906;28;20090;-68
2023/04/21 02:46:42;;;;;;;3.97;0.60;;;22.00;99.90;;;;;;5045770;28;20017;-67
2023/04/21 02:49:10;;;;;;;3.33;1.10;;;21.90;99.00;;;;;;5046250;28;20043;-68
2023/04/21 02:51:38;;;;;;;4.40;1.13;;;22.00;99.90;;;;;;5045899;28;20426;-68
2023/04/21 02:54:05;;;;;;;3.22;0.70;;;22.30;99.90;;;;;;5048800;28;20492;-67
2023/04/21 02:56:33;;;;;;;3.75;0.80;;;22.60;98.30;;;;;;5061212;28;20093;-67
2023/04/21 02:59:03;;;;;;;6.50;0.88;;;22.50;98.20;;;;;;5053099;28;20041;-67
2023/04/21 03:01:31;;;;;;;4.75;0.60;;;22.60;96.80;;;;;;5048923;28;20431;-67
2023/04/21 03:03:58;;;;;;;5.03;1.10;;;22.60;96.00;;;;;;5049874;28;20109;-67
2023/04/21 03:06:27;;;;;;;7.00;0.85;;;22.40;96.10;;;;;;5033389;28;20394;-67
2023/04/21 03:08:55;;;;;;;3.33;0.77;;;22.30;98.00;;;;;;5035208;28;20036;-67
2023/04/21 03:11:23;;;;;;;5.65;1.17;;;22.20;99.60;;;;;;5052524;28;20083;-67
2023/04/21 03:13:50;;;;;;;3.55;0.93;;;21.80;99.30;;;;;;5059799;28;20059;-66
2023/04/21 03:16:18;;;;;;;6.97;1.00;;;21.60;99.90;;;;;;5055887;28;20951;-67
2023/04/21 03:18:46;;;;;;;5.55;0.93;;;21.40;99.90;;;;;;5054890;28;20033;-68
2023/04/21 03:21:13;;;;;;;5.32;0.75;;;21.40;99.90;;;;;;5042953;28;20548;-69
2023/04/21 03:23:41;;;;;;;3.58;0.60;;;21.70;99.90;;;;;;5062588;28;20107;-67
2023/04/21 03:26:08;;;;;;;3.60;0.75;;;21.90;99.90;;;;;;5032888;28;20124;-67
2023/04/21 03:28:36;;;;;;;4.13;0.85;;;22.00;97.40;;;;;;5060364;28;20071;-66
2023/04/21 03:31:06;;;;;;;2.60;0.43;;;22.10;98.10;;;;;;5054954;28;20091;-68
2023/04/21 03:33:40;;;;;;;4.53;0.68;;;22.30;98.40;;;;;;5058785;28;20035;-67
2023/04/21 03:36:10;;;;;;;1.53;0.73;;;22.30;98.80;;;;;;5050718;28;20025;-67
2023/04/21 03:38:38;;;;;;;4.50;1.10;;;22.50;99.10;;;;;;5055780;28;20020;-68
2023/04/21 03:41:05;;;;;;;6.03;0.60;;;22.80;98.60;;;;;;5054803;28;20023;-67
2023/04/21 03:43:32;;;;;;;2.67;0.98;;;22.70;98.10;;;;;;5047338;28;20104;-67
2023/04/21 03:46:00;;;;;;;4.95;0.75;;;22.60;97.10;;;;;;5048420;28;20108;-66
2023/04/21 03:48:31;;;;;;;4.70;0.77;;;22.30;96.90;;;;;;5053632;28;20795;-68
2023/04/21 03:50:58;;;;;;;5.90;1.00;;;22.00;97.60;;;;;;5062808;28;20067;-66
2023/04/21 03:53:26;;;;;;;2.00;0.73;;;21.90;98.50;;;;;;5029947;28;20048;-69
2023/04/21 03:55:53;;;;;;;3.70;0.77;;;22.00;99.90;;;;;;5048726;28;20733;-69
2023/04/21 03:58:27;;;;;;;3.08;0.70;;;22.30;97.80;;;;;;5044164;28;20037;-71
2023/04/21 04:00:57;;;;;;;3.27;0.77;;;22.60;98.30;;;;;;5040214;28;20028;-69
2023/04/21 04:03:30;;;;;;;1.55;0.47;;;22.90;97.00;;;;;;5052575;28;20525;-70
2023/04/21 04:06:02;;;;;;;4.43;0.98;;;23.10;96.20;;;;;;5047410;28;20029;-69
2023/04/21 04:08:33;;;;;;;3.35;0.40;;;22.90;96.00;;;;;;5049334;28;20393;-68
2023/04/21 04:11:00;;;;;;;4.53;1.58;;;22.80;97.20;;;;;;5040121;28;20032;-67
2023/04/21 04:13:28;;;;;;;3.30;0.70;;;22.50;97.60;;;;;;5040430;28;20049;-68
2023/04/21 04:15:57;;;;;;;4.00;0.70;;;22.20;98.50;;;;;;5039895;28;20025;-69
2023/04/21 04:18:28;;;;;;;4.45;0.82;;;22.10;99.70;;;;;;5065850;28;20497;-69
2023/04/21 04:20:55;;;;;;;4.50;0.52;;;22.10;98.00;;;;;;5045846;28;20182;-70
2023/04/21 04:23:23;;;;;;;5.20;0.70;;;22.00;98.60;;;;;;5049357;28;20553;-68
2023/04/21 04:25:53;;;;;;;6.40;0.60;;;22.10;97.70;;;;;;5062913;28;20397;-68
2023/04/21 04:28:21;;;;;;;3.83;1.08;;;22.20;98.40;;;;;;5047278;28;20067;-68
2023/04/21 04:30:49;;;;;;;3.55;0.40;;;22.20;95.80;;;;;;5052995;28;20389;-68
2023/04/21 04:33:16;;;;;;;3.40;0.43;;;22.20;95.20;;;;;;5058708;28;20021;-68
2023/04/21 04:35:50;;;;;;;4.60;0.70;;;22.20;96.60;;;;;;5037513;28;20066;-72
2023/04/21 04:38:17;;;;;;;4.43;0.73;;;22.30;97.00;;;;;;5033449;28;20041;-68
2023/04/21 04:40:45;;;;;;;3.60;1.10;;;22.40;98.00;;;;;;5043893;28;20028;-67
2023/04/21 04:43:12;;;;;;;2.92;0.73;;;22.40;98.40;;;;;;5040124;28;20036;-68
2023/04/21 04:45:39;;;;;;;6.82;0.90;;;22.40;96.60;;;;;;5044237;28;20057;-69
2023/04/21 04:48:07;;;;;;;5.00;0.60;;;22.40;96.10;;;;;;5047607;28;20120;-68
2023/04/21 04:50:37;;;;;;;1.95;0.40;;;22.60;94.80;;;;;;5056040;28;20452;-68
2023/04/21 04:53:05;;;;;;;1.30;0.45;;;22.50;95.80;;;;;;5046437;28;20126;-69
2023/04/21 04:55:33;;;;;;;3.25;0.60;;;22.50;96.50;;;;;;5048908;28;20057;-68
2023/04/21 04:58:00;;;;;;;0.80;0.43;;;22.20;97.40;;;;;;5051966;28;20437;-68
2023/04/21 05:00:28;;;;;;;2.17;0.70;;;21.80;96.90;;;;;;5056921;28;20377;-68
2023/04/21 05:02:55;;;;;;;3.80;0.50;;;21.40;98.40;;;;;;5060561;28;20032;-68
2023/04/21 05:05:23;;;;;;;6.72;1.00;;;21.20;99.20;;;;;;5049555;28;20869;-68
2023/04/21 05:07:51;;;;;;;2.72;0.70;;;21.00;99.80;;;;;;5050113;28;20605;-65
2023/04/21 05:10:18;;;;;;;1.83;0.60;;;20.90;99.90;;;;;;5035196;28;20035;-65
2023/04/21 05:12:46;;;;;;;6.03;0.85;;;20.80;99.90;;;;;;5043112;28;20031;-64
2023/04/21 05:15:13;;;;;;;4.78;0.80;;;20.90;99.90;;;;;;5058876;28;20570;-65
2023/04/21 05:17:41;;;;;;;4.38;1.13;;;21.00;99.90;;;;;;5058297;28;20630;-65
2023/04/21 05:20:09;;;;;;;2.47;0.80;;;21.10;99.90;;;;;;5034306;28;20029;-67
2023/04/21 05:22:39;;;;;;;4.60;1.02;;;21.10;99.90;;;;;;5034455;28;20074;-66
2023/04/21 05:25:09;;;;;;;3.88;0.40;;;21.20;99.90;;;;;;5048803;28;20048;-66
2023/04/21 05:27:37;;;;;;;2.38;0.50;;;21.30;99.90;;;;;;5053343;28;20041;-68
2023/04/21 05:30:04;;;;;;;11.48;1.05;;;21.30;96.20;;;;;;5047656;28;20017;-66
2023/04/21 05:32:35;;;;;;;2.80;0.60;;;21.30;95.10;;;;;;5049850;28;20021;-67
2023/04/21 05:35:03;;;;;;;2.60;0.63;;;21.20;95.60;;;;;;5051402;28;20049;-66
2023/04/21 05:37:30;;;;;;;3.08;0.85;;;21.20;96.00;;;;;;5025746;28;20398;-68
2023/04/21 05:39:58;;;;;;;5.97;0.77;;;21.20;95.70;;;;;;5051332;28;20025;-68
2023/04/21 05:42:25;;;;;;;3.90;0.50;;;21.20;96.00;;;;;;5032621;28;20112;-67
2023/04/21 05:44:54;;;;;;;3.00;0.70;;;21.10;96.70;;;;;;5046679;28;20390;-67
2023/04/21 05:47:21;;;;;;;1.00;0.38;;;21.10;96.40;;;;;;5051910;28;20017;-67
2023/04/21 05:49:52;;;;;;;2.75;0.98;;;21.20;95.10;;;;;;5051876;28;20033;-67
2023/04/21 05:52:20;;;;;;;2.13;0.50;;;21.20;94.20;;;;;;5048119;28;20025;-69
2023/04/21 05:54:51;;;;;;;1.48;0.57;;;21.10;94.00;;;;;;5052302;28;20570;-65
2023/04/21 05:57:19;;;;;;;3.83;1.05;;;21.10;93.30;;;;;;5062241;28;20021;-67
2023/04/21 05:59:46;;;;;;;2.83;0.50;;;21.10;91.70;;;;;;5056711;28;20888;-67
2023/04/21 06:02:13;;;;;;;2.83;0.70;;;21.00;92.00;;;;;;5048181;28;20049;-67
2023/04/21 06:04:41;;;;;;;0.70;0.50;;;21.00;91.00;;;;;;5047847;28;20605;-67
2023/04/21 06:07:12;;;;;;;3.05;0.40;;;21.00;90.00;;;;;;5050154;28;20020;-68
2023/04/21 06:09:40;;;;;;;3.70;0.60;;;21.00;90.40;;;;;;5034519;28;20541;-68
2023/04/21 06:12:07;;;;;;;2.28;0.70;;;20.90;92.10;;;;;;5042685;28;20056;-68
2023/04/21 06:14:35;;;;;;;1.70;0.43;;;20.90;91.60;;;;;;5046096;28;20045;-68
2023/04/21 06:17:02;;;;;;;3.80;0.60;;;20.80;92.30;;;;;;5039341;28;20036;-66
2023/04/21 06:19:30;;;;;;;3.33;1.15;;;20.80;91.50;;;;;;5028616;28;20025;-66
2023/04/21 06:21:57;;;;;;;4.40;0.77;;;20.90;92.50;;;;;;5038800;28;20017;-66
2023/04/21 06:24:25;;;;;;;3.45;0.52;;;20.90;93.50;;;;;;5056832;28;20089;-67
2023/04/21 06:26:55;;;;;;;1.98;0.55;;;20.90;95.00;;;;;;5052457;28;20029;-66
2023/04/21 06:29:23;;;;;;;2.13;0.50;;;20.80;96.50;;;;;;5030838;28;20068;-66
2023/04/21 06:31:50;;;;;;;4.90;1.00;;;20.70;97.40;;;;;;5048024;28;20032;-65
2023/04/21 06:34:19;;;;;;;4.47;0.50;;;20.70;97.10;;;;;;5045811;28;20028;-70
2023/04/21 06:36:47;;;;;;;2.65;0.77;;;20.60;97.30;;;;;;5051914;28;20600;-68
2023/04/21 06:39:14;;;;;;;2.03;0.40;;;20.50;98.30;;;;;;5049090;28;20103;-68
2023/04/21 06:41:41;;;;;;;6.15;0.85;;;20.40;98.60;;;;;;5049249;28;20033;-68
2023/04/21 06:44:12;;;;;;;4.13;1.00;;;20.30;98.60;;;;;;5032175;28;20062;-69
2023/04/21 06:46:46;;;;;;;2.10;0.60;;;20.20;99.80;;;;;;5037231;28;20052;-67
2023/04/21 06:49:13;;;;;;;1.67;0.50;;;20.10;99.60;;;;;;5041431;28;20036;-68
2023/04/21 06:51:41;;;;;;;3.28;0.80;;;20.00;99.30;;;;;;5066050;28;20028;-69
2023/04/21 06:54:08;;;;;;;2.50;0.82;;;20.00;99.20;;;;;;5039557;28;20034;-68
2023/04/21 06:56:36;;;;;;;4.15;1.23;;;20.00;99.40;;;;;;5060925;28;20028;-66
2023/04/21 06:59:03;;;;;;;4.95;0.90;;;19.90;99.90;;;;;;5047410;28;20509;-66
2023/04/21 07:01:31;;;;;;;4.47;0.80;;;19.90;99.90;;;;;;5043575;28;20029;-66
2023/04/21 07:03:58;;;;;;;2.83;0.70;;;19.80;99.90;;;;;;5048784;28;20504;-66
2023/04/21 07:06:26;;;;;;;5.40;1.25;;;19.80;99.90;;;;;;5045767;28;20635;-65
2023/04/21 07:08:53;;;;;;;4.03;1.30;;;19.70;99.90;;;;;;5029718;28;20071;-66
2023/04/21 07:11:21;;;;;;;8.88;2.67;;;19.60;99.90;;;;;;5059001;28;20047;-65
2023/04/21 07:13:48;;;;;;;3.10;1.17;;;19.40;99.90;;;;;;5043666;28;20045;-65
2023/04/21 07:16:16;;;;;;;5.45;1.80;;;19.30;99.90;;;;;;5043475;28;20028;-65
2023/04/21 07:18:43;;;;;;;3.92;1.30;;;19.10;99.90;;;;;;5040708;28;20030;-65
2023/04/21 07:21:10;;;;;;;7.15;1.10;;;19.00;99.90;;;;;;5043900;28;20032;-67
2023/04/21 07:23:38;;;;;;;4.53;0.80;;;18.90;99.90;;;;;;5042738;28;20028;-65
2023/04/21 07:26:05;;;;;;;4.53;1.02;;;18.80;99.90;;;;;;5050645;28;20025;-66
2023/04/21 07:28:33;;;;;;;4.45;1.23;;;18.70;99.90;;;;;;5052317;28;20400;-66
2023/04/21 07:31:00;;;;;;;4.93;1.00;;;18.60;99.90;;;;;;5048195;28;20025;-64
2023/04/21 07:33:28;;;;;;;3.33;1.17;;;18.50;99.90;;;;;;5036069;28;20020;-66
2023/04/21 07:35:55;;;;;;;4.75;0.90;;;18.50;99.90;;;;;;5049258;28;20025;-66
2023/04/21 07:38:23;;;;;;;3.13;0.73;;;18.40;99.90;;;;;;5034424;28;20148;-66
2023/04/21 07:40:50;;;;;;;2.92;0.90;;;18.30;99.90;;;;;;5045723;28;20253;-66
2023/04/21 07:43:21;;;;;;;2.70;0.60;;;18.10;99.90;;;;;;5059347;28;20029;-66
2023/04/21 07:45:50;;;;;;;2.90;1.10;;;18.00;99.90;;;;;;5058283;28;20043;-65
2023/04/21 07:48:18;;;;;;;6.55;1.08;;;17.80;99.90;;;;;;5037752;28;20425;-68
2023/04/21 07:50:45;;;;;;;2.50;0.90;;;17.60;99.90;;;;;;5064080;28;20033;-65
2023/04/21 07:53:13;;;;;;;3.78;0.68;;;17.40;99.90;;;;;;5051461;28;20025;-66
2023/04/21 07:55:40;;;;;;;4.60;1.25;;;17.20;99.90;;;;;;5046747;28;20030;-66
2023/04/21 07:58:09;;;;;;;7.78;1.33;;;17.00;99.90;;;;;;5045502;28;20485;-66
2023/04/21 08:00:36;;;;;;;3.15;0.90;;;16.90;99.90;;;;;;5052893;28;20016;-65
2023/04/21 08:03:04;;;;;;;4.68;1.05;;;16.80;99.90;;;;;;5034713;28;20024;-63
2023/04/21 08:05:31;;;;;;;5.03;1.27;;;16.70;99.90;;;;;;5056954;28;20017;-64
2023/04/21 08:08:01;;;;;;;10.80;3.45;;;16.60;99.90;;;;;;5032195;28;20082;-65
2023/04/21 08:10:29;;;;;;;5.35;1.33;;;16.50;99.90;;;;;;5066307;28;20366;-65
2023/04/21 08:12:56;;;;;;;5.10;1.58;;;16.50;99.90;;;;;;5031334;28;20025;-65
2023/04/21 08:15:24;;;;;;;18.35;5.90;;;16.40;99.90;;;;;;5047713;28;20497;-71
2023/04/21 08:17:52;;;;;;;3.60;1.20;;;16.40;99.90;;;;;;5057121;28;20037;-70
2023/04/21 08:20:19;;;;;;;3.38;0.75;;;16.50;99.90;;;;;;5055633;28;20040;-66
2023/04/21 08:22:47;;;;;;;8.13;1.50;;;16.50;99.90;;;;;;5038932;28;20041;-72
2023/04/21 08:25:14;;;;;;;5.57;1.30;;;16.50;99.90;;;;;;5046616;28;20029;-70
2023/04/21 08:27:42;;;;;;;3.22;1.23;;;16.50;99.90;;;;;;5050735;28;20033;-68
2023/04/21 08:30:10;;;;;;;8.07;1.60;;;16.50;99.90;;;;;;5055076;28;20082;-69
2023/04/21 08:32:38;;;;;;;7.50;1.65;;;16.50;99.90;;;;;;5051779;28;20047;-67
2023/04/21 08:35:05;;;;;;;4.32;1.42;;;16.50;99.90;;;;;;5057109;28;20025;-66
2023/04/21 08:37:36;;;;;;;6.25;2.70;;;16.40;99.90;;;;;;5054698;28;20013;-65
2023/04/21 08:40:05;;;;;;;8.20;1.50;;;16.50;99.90;;;;;;5044496;28;20028;-67
2023/04/21 08:42:35;;;;;;;6.47;1.80;;;16.40;99.90;;;;;;5049582;28;20539;-66
2023/04/21 08:45:03;;;;;;;7.13;2.20;;;16.20;99.90;;;;;;5055795;28;20036;-65
2023/04/21 08:47:33;;;;;;;8.05;2.70;;;16.10;99.90;;;;;;5050027;28;20029;-68
2023/04/21 08:50:00;;;;;;;6.90;2.13;;;16.00;99.90;;;;;;5042318;28;20017;-67
2023/04/21 08:52:28;;;;;;;6.35;1.83;;;15.80;99.90;;;;;;5049365;28;20472;-68
2023/04/21 08:54:55;;;;;;;5.68;1.45;;;15.70;99.90;;;;;;5049593;28;20036;-67
2023/04/21 08:57:23;;;;;;;6.00;2.63;;;15.60;99.90;;;;;;5050505;28;20678;-69
2023/04/21 08:59:50;;;;;;;7.03;1.67;;;15.50;99.90;;;;;;5055421;28;20060;-68
2023/04/21 09:02:19;;;;;;;7.35;2.80;;;15.40;99.90;;;;;;5048066;28;20571;-67
2023/04/21 09:04:50;;;;;;;6.38;2.15;;;15.30;99.90;;;;;;5039381;28;20439;-68
2023/04/21 09:07:40;;;;;;;9.15;2.08;;;15.20;99.90;;;;;;5049250;28;20052;-68
2023/04/21 09:10:08;;;;;;;7.82;1.92;;;15.10;99.90;;;;;;5039309;28;20043;-67
2023/04/21 09:12:38;;;;;;;6.35;2.67;;;15.10;99.90;;;;;;5040323;28;20021;-67
2023/04/21 09:15:09;;;;;;;4.40;1.58;;;15.00;99.90;;;;;;5059603;28;20056;-68
2023/04/21 09:17:37;;;;;;;7.63;2.15;;;14.90;99.90;;;;;;5050630;28;20029;-67
2023/04/21 09:20:21;;;;;;;6.35;1.75;;;14.90;99.90;;;;;;5052306;28;20025;-68
2023/04/21 09:22:52;;;;;;;5.65;1.60;;;14.80;99.90;;;;;;5049851;28;20066;-68
2023/04/21 09:25:23;;;;;;;10.70;2.13;;;14.80;99.90;;;;;;5045798;28;20021;-68
2023/04/21 09:27:53;;;;;;;6.75;1.50;;;14.80;99.90;;;;;;5049795;28;20032;-67
2023/04/21 09:30:21;;;;;;;8.27;2.22;;;14.70;99.90;;;;;;5047672;28;20102;-67
2023/04/21 09:32:49;;;;;;;8.07;2.92;;;14.60;99.90;;;;;;5045291;28;20078;-69
2023/04/21 09:35:17;;;;;;;7.10;1.40;;;14.60;99.90;;;;;;5047346;28;20029;-66
2023/04/21 09:37:45;;;;;;;5.97;1.90;;;14.50;99.90;;;;;;5029578;28;20028;-67
2023/04/21 09:40:18;;;;;;;13.85;2.67;;;14.50;99.90;;;;;;5048108;28;20371;-67
2023/04/21 09:42:46;;;;;;;7.10;3.45;;;14.40;99.90;;;;;;5048366;28;20036;-68
2023/04/21 09:45:15;;;;;;;15.40;6.32;;;14.20;99.90;;;;;;5045949;28;20486;-67
2023/04/21 09:47:45;;;;;;;7.65;3.22;;;14.10;99.90;;;;;;5044141;28;20045;-66
2023/04/21 09:50:16;;;;;;;80.65;41.75;;;14.00;99.90;;;;;;5043437;28;20517;-66
2023/04/21 09:52:46;;;;;;;72.38;37.78;;;13.90;99.90;;;;;;5047821;28;20035;-67
2023/04/21 09:55:14;;;;;;;26.48;11.98;;;13.80;99.90;;;;;;5044621;28;20033;-67
2023/04/21 09:57:44;;;;;;;15.85;7.63;;;13.70;99.90;;;;;;5045006;28;20024;-68
2023/04/21 10:00:13;;;;;;;22.38;9.40;;;13.60;99.90;;;;;;5043698;28;20025;-67
2023/04/21 10:02:47;;;;;;;12.27;4.82;;;13.60;99.90;;;;;;5039432;28;20040;-68
2023/04/21 10:05:15;;;;;;;7.22;3.38;;;13.50;99.90;;;;;;5036356;28;21725;-67
2023/04/21 10:07:44;;;;;;;15.63;3.05;;;13.40;99.90;;;;;;5040846;28;20110;-67
2023/04/21 10:10:27;;;;;;;6.28;2.38;;;13.40;99.90;;;;;;5051675;28;20029;-66
2023/04/21 10:12:55;;;;;;;5.68;2.00;;;13.40;99.90;;;;;;5049405;28;20576;-66
2023/04/21 10:15:42;;;;;;;4.57;1.80;;;13.40;99.90;;;;;;5038833;28;20062;-69
2023/04/21 10:18:24;;;;;;;9.43;2.30;;;13.30;99.90;;;;;;5040484;28;20107;-68
2023/04/21 10:21:08;;;;;;;8.88;2.72;;;13.30;99.90;;;;;;5051179;28;20033;-67
2023/04/21 10:23:50;;;;;;;7.00;2.03;;;13.30;99.90;;;;;;5034729;28;20041;-68
2023/04/21 10:26:21;;;;;;;5.97;1.92;;;13.20;99.90;;;;;;5036259;28;20060;-67
2023/04/21 10:28:48;;;;;;;7.63;2.30;;;13.20;99.90;;;;;;5057367;28;20075;-68
2023/04/21 10:31:31;;;;;;;5.13;2.35;;;13.20;99.90;;;;;;5047558;28;20421;-66
2023/04/21 10:34:08;;;;;;;8.75;3.50;;;13.20;99.90;;;;;;5047352;28;20029;-68
2023/04/21 10:36:51;;;;;;;11.05;2.05;;;13.20;99.90;;;;;;5033503;28;20325;-68
2023/04/21 10:39:34;;;;;;;7.60;2.35;;;13.30;99.90;;;;;;5056816;28;20036;-69
2023/04/21 10:42:21;;;;;;;8.57;2.15;;;13.30;99.90;;;;;;5035695;28;20034;-68
2023/04/21 10:44:58;;;;;;;10.30;2.78;;;13.40;99.90;;;;;;5044314;28;20021;-67
2023/04/21 10:47:27;;;;;;;8.95;2.22;;;13.50;99.90;;;;;;5040895;28;20116;-69
2023/04/21 10:49:59;;;;;;;5.53;3.10;;;13.60;99.90;;;;;;5040797;28;20033;-67
2023/04/21 10:52:33;;;;;;;5.28;1.80;;;13.60;99.90;;;;;;5048558;28;20089;-67
2023/04/21 10:55:00;;;;;;;9.07;2.45;;;13.70;99.90;;;;;;5043202;28;20078;-67
2023/04/21 10:57:34;;;;;;;9.45;2.22;;;13.70;99.90;;;;;;5047475;28;20037;-67
2023/04/21 11:00:07;;;;;;;8.80;2.10;;;13.70;99.90;;;;;;5042130;28;20025;-66
2023/04/21 11:02:35;;;;;;;14.07;3.78;;;13.70;99.90;;;;;;5044329;28;20046;-66
2023/04/21 11:05:03;;;;;;;8.25;2.10;;;13.80;99.90;;;;;;5060759;28;20026;-67
2023/04/21 11:07:31;;;;;;;9.35;2.00;;;13.80;99.90;;;;;;5041907;28;20024;-68
2023/04/21 11:10:00;;;;;;;6.70;2.22;;;13.80;99.90;;;;;;5048423;28;20025;-68
2023/04/21 11:12:45;;;;;;;6.10;2.28;;;13.70;99.90;;;;;;5048547;28;20086;-68
2023/04/21 11:15:14;;;;;;;7.68;1.90;;;13.80;99.90;;;;;;5048391;28;20057;-68
2023/04/21 11:17:46;;;;;;;5.38;1.75;;;13.80;99.90;;;;;;5024320;28;20026;-68
2023/04/21 11:20:14;;;;;;;5.85;1.95;;;13.80;99.90;;;;;;5034586;28;20032;-70
2023/04/21 11:22:42;;;;;;;9.38;2.00;;;13.80;99.90;;;;;;5048779;28;20412;-66
2023/04/21 11:25:17;;;;;;;11.43;1.83;;;13.80;99.90;;;;;;5042236;28;20031;-67
2023/04/21 11:27:54;;;;;;;9.13;2.22;;;13.80;99.90;;;;;;5051155;28;20024;-67
2023/04/21 11:30:34;;;;;;;9.75;2.15;;;13.80;99.90;;;;;;5048438;28;20537;-67
2023/04/21 11:33:02;;;;;;;6.25;2.20;;;13.70;99.90;;;;;;5049335;28;20034;-67
2023/04/21 11:35:31;;;;;;;11.40;3.38;;;13.80;99.90;;;;;;5042145;28;20060;-67
2023/04/21 11:38:03;;;;;;;8.73;2.83;;;13.80;99.90;;;;;;5043611;28;20500;-68
2023/04/21 11:40:43;;;;;;;5.07;2.38;;;13.80;99.90;;;;;;5040151;28;20523;-67
2023/04/21 11:43:11;;;;;;;7.70;2.72;;;13.80;99.90;;;;;;5036223;28;20117;-68
2023/04/21 11:45:40;;;;;;;9.45;2.53;;;13.90;99.90;;;;;;5037131;28;20029;-67
2023/04/21 11:48:16;;;;;;;12.15;2.67;;;13.90;99.90;;;;;;5033968;28;20086;-67
2023/04/21 11:50:50;;;;;;;7.40;2.08;;;14.00;99.90;;;;;;5050400;28;20103;-67
2023/04/21 11:53:18;;;;;;;7.00;2.40;;;14.00;99.90;;;;;;5033553;28;20129;-67
2023/04/21 11:55:46;;;;;;;3.88;2.00;;;14.10;99.90;;;;;;5049020;28;20033;-67
2023/04/21 11:58:16;;;;;;;7.05;2.20;;;14.10;99.90;;;;;;5037366;28;21552;-69
2023/04/21 12:00:47;;;;;;;5.28;2.30;;;14.10;99.90;;;;;;5044871;28;20619;-69
2023/04/21 12:03:15;;;;;;;10.82;2.67;;;14.00;99.90;;;;;;5035536;28;20040;-68
2023/04/21 12:05:42;;;;;;;15.35;2.42;;;13.90;99.90;;;;;;5042787;28;20025;-69
2023/04/21 12:08:16;;;;;;;10.10;2.72;;;13.80;99.90;;;;;;5045687;28;20037;-66
2023/04/21 12:10:48;;;;;;;7.90;3.00;;;13.80;99.90;;;;;;5039534;28;20064;-69
2023/04/21 12:13:26;;;;;;;10.60;2.67;;;13.70;99.90;;;;;;5022476;28;20285;-69
2023/04/21 12:15:54;;;;;;;8.68;3.17;;;13.60;99.90;;;;;;5050941;28;20375;-68
2023/04/21 12:18:21;;;;;;;7.65;3.25;;;13.50;99.90;;;;;;5043767;28;20511;-68
2023/04/21 12:20:50;;;;;;;6.38;2.75;;;13.40;99.90;;;;;;5041795;28;20478;-69
2023/04/21 12:23:19;;;;;;;5.70;2.72;;;13.30;99.90;;;;;;5039861;28;20409;-68
2023/04/21 12:25:50;;;;;;;8.18;3.13;;;13.30;99.90;;;;;;5048130;28;20075;-68
2023/04/21 12:28:17;;;;;;;7.93;3.13;;;13.20;99.90;;;;;;5027023;28;20048;-69
2023/04/21 12:30:45;;;;;;;7.38;3.00;;;13.20;99.90;;;;;;5055676;28;20027;-67
2023/04/21 12:33:13;;;;;;;10.15;3.20;;;13.20;99.90;;;;;;5044886;28;20057;-70
2023/04/21 12:35:40;;;;;;;11.77;3.22;;;13.20;99.90;;;;;;5042531;28;20385;-68
2023/04/21 12:38:08;;;;;;;12.80;2.97;;;13.10;99.90;;;;;;5042632;28;20017;-69
2023/04/21 12:40:35;;;;;;;8.45;2.78;;;13.10;99.90;;;;;;5038860;28;20024;-68
2023/04/21 12:43:03;;;;;;;6.80;2.47;;;13.10;99.90;;;;;;5045564;28;20032;-67
2023/04/21 12:45:31;;;;;;;7.35;2.40;;;13.00;99.90;;;;;;5025323;28;20115;-69
2023/04/21 12:47:59;;;;;;;4.95;2.67;;;13.00;99.90;;;;;;5065147;28;20028;-68
2023/04/21 12:50:26;;;;;;;6.85;2.28;;;13.00;99.90;;;;;;5053598;28;20025;-69
2023/04/21 12:52:54;;;;;;;7.38;3.22;;;13.00;99.90;;;;;;5045774;28;20395;-68
2023/04/21 12:55:22;;;;;;;9.30;2.40;;;13.00;99.90;;;;;;5025828;28;20032;-70